Elon, NC

19:10 EST le 05 février 2016 (GMT -0500)
Burlington-Alamance Regional | | Change Station
CLOSE
Current Station
Aéroport
Location: Burlington,
Altitude: 617 ft
Stations météo à proximité

Alt. 617 ft 36.05 °N, 79.47 °W | Updated 16 minutes ago

Ciel dégagé
Ciel dégagé
40 ° F
Paraît 40 ° F
N
0
Vent Variable Vent de Nord

Aujourd'hui
Haut(e) -- | Bas -- ° F
--% Risque de précip.
Hier
Haut(e) -- | Bas -- ° F
Precip. -- pouce
Pression 30.37 pouce
Visibilité 10.0 Miles terrestres
Nuages Ciel dégagé
Point de rosée 18 ° F
Humidité 41%
Précipitations 0.03 pouce
Profondeur de la couche neigeuse Non disponible.
7:15 AM 5:48 PM
Lune descendante, 8% visible
METAR KBUY 052354Z AUTO 00000KT 10SM CLR 04/M08 A3035 RMK AO2 SLP282 T00441078 10083 20033 53015
Pression 30.37 pouce
Visibilité 10.0 Miles terrestres
Nuages Ciel dégagé
Point de rosée 18 ° F
Humidité 41%
Précipitations 0.03 pouce
Profondeur de la couche neigeuse Non disponible.
7:15 AM 5:48 PM
Lune descendante, 8% visible
METAR KBUY 052354Z AUTO 00000KT 10SM CLR 04/M08 A3035 RMK AO2 SLP282 T00441078 10083 20033 53015

10-Day Weather Forecast

Almanac

Astronomie

Feb. 05, 2016 Lever Coucher
Temps réel
Crépuscule civil
Crépuscule nautique
Crépuscule astronomique
Lune
Durée de lumière visible
Longueur du jour
Tomorrow will be .
, % of the Moon is Illuminated

Extrêmes aujourd'hui

State Highs State Lows

Community

WunderPhotos

Upload Photos

1,890,894 Photos téléchargées !

WunderBlog® & News

Nearby

Qualité de l'air

  Qualité de l'air Indice de la qualité de l'air Polluant
Not available.

Épaisseur de neige

Station Depth Altitude

Activité sismique

Ville Distance Mag. Time & Date
Minimum magnitude displayed is 2.5.

Températures des eaux côtières

Lieu Température

Stations

Stations météo à proximité

Emplacement de la station Température Refroidissement éolien Point de rosée Humidité Vent Precip. Alt. Mise à jour Type
                   

Watches & Warnings

There are currently no watches in effect.